Aérodrome :
LOGIN :

S'inscrire | Disclaimer

   EN    FR    IT 

 










Légende :    VFR   VFR Marginal   IFR   IFR Intensif   IFR Très Intensif
Visi : 
Plafond : 
>= 8 km
>= 3000ft
5 à 8 km
1000 à 3000 ft
1500m à 5 km
500 à 1000 ft
800 à 1500m
200 à 500 ft
< 800m
< 200 ft
Symboles :   Orages  Brouillard  Fortes neiges  Fortes précipitations  Vent > 20 kt
SIGMETs :   Divers  Orages  Givrage  Turbulence  Onde Orograph.  Cendres Volcan.






- Altitude de l'aérodrome : 26 ft
- Code IATA : BIA


LFKB - Bastia

DERNIER METAR :
  • 171900Z AUTO 25003KT CAVOK 07/05 Q1026 NOSIG

METARs EXPIRÉS :
  • 171830Z AUTO 23007KT 200V260 CAVOK 10/06 Q1026 NOSIG
  • 171800Z AUTO 20005KT CAVOK 07/05 Q1025 NOSIG
  • 171730Z AUTO 22003KT CAVOK 08/06 Q1025 NOSIG
  • 171700Z AUTO 21004KT 200V260 CAVOK 07/05 Q1026 NOSIG

TAF TAF LFKB
Valide du 17 à 15h jusqu'au 18 à 15h UTC


171400Z 1715/1815 11006KT CAVOK TX15/1812Z TN05/1806Z
BECMG 1716/1718 23006KT
BECMG 1810/1812 04006KT
ATIS : +33 4 95 59 19 40



MET'MAP, la Météo Aéronautique d'un coup d'oeil ! - Copyright ORBIFLY Décembre 2007 - Disclaimer

ORBIFLY MET'MAP TEAM :

Programmation & Développement : Alexandra Zaïnal
Sur une idée originale de : Baudouin d'Aumeries
Assistance à la programmation : Marc-Olivier Méhu
Soutien technique & logistique : Manuel Goepfert

Contact : metmap@orbifly.com




SOURCES & CREDITS :

   NOAA